Aeroporto :
LOGIN :

Iscrizione | Disclaimer

   EN    FR    IT 

 










Sommario :    VFR   VFR Marginale   IFR   IFR Intensivo   IFR Molto Intensivo
Visibilità : 
Base nubi : 
>= 8 km
>= 3000ft
5 / 8 km
1000 / 3000 ft
1500m / 5 km
500 / 1000 ft
800 / 1500m
200 / 500 ft
< 800m
< 200 ft
Simboli :   Temporali  Nebbia  Neve Forte  Precipitazioni Forti  Vento > 20 kt
SIGMETs :   Varie  Temporali  Ghiacco  Turbolenza  Onda orograficha  Ceneri Vulcaniche






- Altitudine del aeroporto : 20 ft


EBFN - Koksijde

ULTIMO METAR :
  • 212025Z AUTO 20003KT 0500 FG OVC006/// 01/01 Q1040 RED

METARs OBSOLETI :
  • 211955Z AUTO 19004KT 0050 FG OVC001/// 01/01 Q1040 RED
  • 211925Z AUTO 20003KT 0550 FG NCD 01/01 Q1040 RED
  • 211855Z AUTO 19005KT 0700 FG NCD 01/01 Q1040 RED
  • 211825Z AUTO 19005KT 0800 FG NCD 01/01 Q1040 AMB
  • 211755Z AUTO 21003KT 0650 FG FEW011/// 02/02 Q1040 RED

TAF TAF EBFN
Valido dal 21 a 19 ore il 22 a 07 ore UTC


211541Z 2119/2207 19005KT 1500 BR SCT005 BKN010
BECMG 2119/2121 VRB03KT 0500 FG FZFG BKN001



MetMap, La meteo Aeronautica in un colpo d'occhio ! - Copyright ORBIFLY Dicembre 2007 - Disclaimer

ORBIFLY MET'MAP TEAM :

Programmazione e sviluppo : Alexandra Zaïnal
Concezione : Baudouin d'Aumeries
Aiuto per la programmazione : Marc-Olivier Méhu
Supporto tecnico e logistico : Manuel Goepfert
Aiuto per la traduzione : Arnaldo La Scala

Contatto : metmap@orbifly.com




FONTI E CREDITI :

   NOAA